Jevne, Minnesota
Current Conditions -  °F | °C
As of 9:47 PM on Saturday 24 Jan 2015 (Local Time) from KHZX Reporting Station
Overcast Overcast  
Wind Chill: -8°   Ceiling: 1100
Heat Index: -2°   Visibility: 10mi
Dew Point: -4°   Wind: 14mph
Humidity: 86%   Direction: 80°E
Pressure: 29.74"   Gusts: 18mph
Location:  46.7232°N, 93.3159°W
Report Text: KHZX 250347Z AUTO 08012G16KT 10SM OVC011 M02/M04 A2974 RMK AO2
Loading
Personal Weather Stations






























Interactive Weather Map New forecast layout! Learn more

10-Day Weather Forecast

Advertisements
Track Severe Weather on mobile